WUK2JE LEBL-EGGW
Flight info
| Callsign | WUK2JE |
|---|---|
| Flight time | N/A |
| Altitude | 32000 |
| Route | NATPI DCT EVNAM/N0447F360 DCT TUPAR UN861 DIKRO UM185 TELTU |
| Aircraft | A21N/M-SDE1E2E3FGIJ1J4RWXY/LB1 |
Departure
| Time | N/A |
|---|---|
| Airport | Josep Tarradellas Barcelona-El Prat Airport (LEBL) |
Arrival
| Time | 2026-05-01 13:07 |
|---|---|
| Airport | London Luton Airport (EGGW) |
| Time | Latitude | Longitude | Altitude | Speed | Heading |
|---|---|---|---|---|---|
| 2026-05-01 12:40 | 51.20103 | -0.50241 | 19072 ft | 389 kts | 25° |
| 2026-05-01 12:40 | 51.22632 | -0.48583 | 19089 ft | 388 kts | 25° |
| 2026-05-01 12:40 | 51.25115 | -0.46946 | 19108 ft | 388 kts | 25° |
| 2026-05-01 12:40 | 51.27616 | -0.45298 | 19134 ft | 388 kts | 25° |
| 2026-05-01 12:41 | 51.30128 | -0.43644 | 19148 ft | 389 kts | 25° |
| 2026-05-01 12:41 | 51.32627 | -0.42001 | 19155 ft | 389 kts | 25° |
| 2026-05-01 12:41 | 51.35118 | -0.40363 | 19159 ft | 389 kts | 25° |
| 2026-05-01 12:41 | 51.37614 | -0.38717 | 19161 ft | 389 kts | 25° |
| 2026-05-01 12:42 | 51.40108 | -0.37073 | 19040 ft | 385 kts | 25° |
| 2026-05-01 12:42 | 51.42582 | -0.35441 | 18564 ft | 383 kts | 25° |
| 2026-05-01 12:42 | 51.44988 | -0.33715 | 18018 ft | 382 kts | 27° |
| 2026-05-01 12:42 | 51.47389 | -0.31891 | 17547 ft | 379 kts | 28° |
| 2026-05-01 12:43 | 51.49749 | -0.30078 | 17096 ft | 376 kts | 28° |
| 2026-05-01 12:43 | 51.52100 | -0.28270 | 16648 ft | 374 kts | 28° |
| 2026-05-01 12:43 | 51.54413 | -0.26492 | 16261 ft | 369 kts | 28° |
| 2026-05-01 12:43 | 51.56727 | -0.24716 | 16161 ft | 369 kts | 28° |
| 2026-05-01 12:44 | 51.59062 | -0.22923 | 16155 ft | 370 kts | 28° |
| 2026-05-01 12:44 | 51.61364 | -0.21152 | 16157 ft | 371 kts | 28° |
| 2026-05-01 12:44 | 51.66032 | -0.17559 | 16167 ft | 371 kts | 28° |
| 2026-05-01 12:45 | 51.70692 | -0.13965 | 16168 ft | 372 kts | 28° |
| 2026-05-01 12:45 | 51.72996 | -0.12185 | 16147 ft | 360 kts | 28° |
| 2026-05-01 12:45 | 51.75075 | -0.10204 | 16165 ft | 341 kts | 40° |
| 2026-05-01 12:46 | 51.76831 | -0.07711 | 16144 ft | 332 kts | 49° |
| 2026-05-01 12:46 | 51.78423 | -0.05046 | 16147 ft | 332 kts | 51° |
| 2026-05-01 12:46 | 51.79995 | -0.02343 | 16143 ft | 332 kts | 51° |
| 2026-05-01 12:46 | 51.81575 | 0.00370 | 16149 ft | 332 kts | 51° |
| 2026-05-01 12:47 | 51.83183 | 0.03107 | 16156 ft | 332 kts | 50° |
| 2026-05-01 12:47 | 51.84764 | 0.05785 | 16140 ft | 332 kts | 50° |
| 2026-05-01 12:47 | 51.86359 | 0.08479 | 16150 ft | 332 kts | 50° |
| 2026-05-01 12:47 | 51.87958 | 0.11178 | 16157 ft | 332 kts | 50° |
| 2026-05-01 12:48 | 51.89549 | 0.13868 | 16160 ft | 332 kts | 50° |
| 2026-05-01 12:48 | 51.91163 | 0.16551 | 16161 ft | 333 kts | 46° |
| 2026-05-01 12:48 | 51.93032 | 0.18832 | 16158 ft | 338 kts | 33° |
| 2026-05-01 12:48 | 51.95121 | 0.20523 | 16161 ft | 340 kts | 26° |
| 2026-05-01 12:49 | 51.97271 | 0.22021 | 16076 ft | 336 kts | 25° |
| 2026-05-01 12:49 | 51.99406 | 0.23477 | 15680 ft | 335 kts | 25° |
| 2026-05-01 12:49 | 52.01548 | 0.24961 | 15253 ft | 334 kts | 25° |
| 2026-05-01 12:49 | 52.03684 | 0.26464 | 15185 ft | 333 kts | 26° |
| 2026-05-01 12:50 | 52.05777 | 0.27951 | 15155 ft | 332 kts | 26° |
| 2026-05-01 12:50 | 52.07898 | 0.29421 | 14859 ft | 330 kts | 21° |
| 2026-05-01 12:50 | 52.10175 | 0.29917 | 14351 ft | 334 kts | 352° |
| 2026-05-01 12:50 | 52.12307 | 0.28619 | 13928 ft | 328 kts | 322° |
| 2026-05-01 12:51 | 52.13804 | 0.25940 | 13546 ft | 319 kts | 299° |
| 2026-05-01 12:51 | 52.14969 | 0.22916 | 13162 ft | 317 kts | 298° |
| 2026-05-01 12:51 | 52.17350 | 0.16928 | 12384 ft | 314 kts | 300° |
| 2026-05-01 12:52 | 52.18559 | 0.14005 | 12022 ft | 312 kts | 301° |
| 2026-05-01 12:52 | 52.20988 | 0.08217 | 11308 ft | 307 kts | 301° |
| 2026-05-01 12:52 | 52.22188 | 0.05370 | 11162 ft | 304 kts | 301° |
| 2026-05-01 12:53 | 52.24591 | -0.00335 | 11151 ft | 303 kts | 301° |
| 2026-05-01 12:53 | 52.25747 | -0.03075 | 11141 ft | 288 kts | 300° |
| 2026-05-01 12:53 | 52.26629 | -0.06046 | 11147 ft | 294 kts | 279° |
| 2026-05-01 12:54 | 52.26674 | -0.09306 | 11114 ft | 285 kts | 254° |
| 2026-05-01 12:54 | 52.25064 | -0.15019 | 10334 ft | 279 kts | 237° |
| 2026-05-01 12:54 | 52.24094 | -0.17757 | 9930 ft | 277 kts | 236° |
| 2026-05-01 12:55 | 52.22162 | -0.23129 | 9224 ft | 273 kts | 236° |
| 2026-05-01 12:55 | 52.21202 | -0.25786 | 9149 ft | 274 kts | 236° |
| 2026-05-01 12:55 | 52.20229 | -0.28469 | 9127 ft | 275 kts | 236° |
| 2026-05-01 12:56 | 52.19257 | -0.31150 | 9129 ft | 276 kts | 236° |
| 2026-05-01 12:56 | 52.18283 | -0.33830 | 9126 ft | 276 kts | 236° |
| 2026-05-01 12:56 | 52.17307 | -0.36514 | 9126 ft | 275 kts | 236° |
| 2026-05-01 12:56 | 52.16122 | -0.38915 | 9110 ft | 269 kts | 221° |
| 2026-05-01 12:57 | 52.14724 | -0.40896 | 8810 ft | 266 kts | 217° |
| 2026-05-01 12:57 | 52.11850 | -0.44640 | 7973 ft | 266 kts | 216° |
| 2026-05-01 12:57 | 52.10409 | -0.46485 | 7608 ft | 264 kts | 216° |
| 2026-05-01 12:58 | 52.08961 | -0.48334 | 7248 ft | 262 kts | 216° |
| 2026-05-01 12:58 | 52.07542 | -0.50140 | 7145 ft | 262 kts | 216° |
| 2026-05-01 12:58 | 52.06104 | -0.51970 | 7145 ft | 262 kts | 216° |
| 2026-05-01 12:59 | 52.03245 | -0.55612 | 7139 ft | 262 kts | 216° |
| 2026-05-01 12:59 | 52.01812 | -0.57447 | 7140 ft | 262 kts | 216° |
| 2026-05-01 12:59 | 51.98957 | -0.61107 | 7127 ft | 261 kts | 216° |
| 2026-05-01 13:00 | 51.96132 | -0.64726 | 6408 ft | 260 kts | 217° |
| 2026-05-01 13:00 | 51.94721 | -0.66517 | 6043 ft | 259 kts | 216° |
| 2026-05-01 13:01 | 51.91903 | -0.70067 | 5294 ft | 256 kts | 216° |
| 2026-05-01 13:01 | 51.90451 | -0.71613 | 5082 ft | 246 kts | 199° |
| 2026-05-01 13:01 | 51.87248 | -0.71260 | 4733 ft | 227 kts | 162° |
| 2026-05-01 13:02 | 51.85785 | -0.70434 | 4578 ft | 219 kts | 161° |
| 2026-05-01 13:07 | 51.87516 | -0.36493 | 527 ft | 43 kts | 74° |
| 2026-05-01 13:07 | 51.87582 | -0.36100 | 527 ft | 33 kts | 74° |
| 2026-05-01 13:07 | 51.87627 | -0.35913 | 527 ft | 10 kts | 26° |
| 2026-05-01 13:08 | 51.87700 | -0.35931 | 527 ft | 11 kts | 343° |
| 2026-05-01 13:08 | 51.87765 | -0.35995 | 527 ft | 11 kts | 304° |
| 2026-05-01 13:08 | 51.87768 | -0.36124 | 527 ft | 12 kts | 254° |
| 2026-05-01 13:08 | 51.87744 | -0.36263 | 527 ft | 13 kts | 253° |
| 2026-05-01 13:09 | 51.87720 | -0.36406 | 527 ft | 13 kts | 253° |
| 2026-05-01 13:09 | 51.87693 | -0.36557 | 527 ft | 14 kts | 253° |
| 2026-05-01 13:09 | 51.87665 | -0.36712 | 527 ft | 14 kts | 252° |
| 2026-05-01 13:09 | 51.87640 | -0.36868 | 527 ft | 11 kts | 254° |
| 2026-05-01 13:10 | 51.87670 | -0.36947 | 527 ft | 10 kts | 341° |
| 2026-05-01 13:10 | 51.87741 | -0.36984 | 527 ft | 11 kts | 341° |
| 2026-05-01 13:10 | 51.87822 | -0.37027 | 527 ft | 13 kts | 341° |
| 2026-05-01 13:10 | 51.87913 | -0.37076 | 527 ft | 14 kts | 342° |
| 2026-05-01 13:11 | 51.88012 | -0.37127 | 527 ft | 14 kts | 341° |
| 2026-05-01 13:11 | 51.88106 | -0.37177 | 527 ft | 13 kts | 341° |
| 2026-05-01 13:11 | 51.88195 | -0.37225 | 527 ft | 13 kts | 341° |
| 2026-05-01 13:11 | 51.88257 | -0.37276 | 527 ft | 8 kts | 298° |
| 2026-05-01 13:12 | 51.88251 | -0.37357 | 527 ft | 5 kts | 251° |
| 2026-05-01 13:12 | 51.88237 | -0.37399 | 527 ft | 3 kts | 205° |
| 2026-05-01 13:12 | 51.88211 | -0.37391 | 527 ft | 3 kts | 159° |
| 2026-05-01 13:12 | 51.88186 | -0.37376 | 527 ft | 3 kts | 160° |
| 2026-05-01 13:13 | 51.88166 | -0.37365 | 527 ft | 0 kts | 160° |
| 2026-05-01 13:13 | 51.88166 | -0.37364 | 527 ft | 0 kts | 160° |